sensor_id;sensor_type;location;lat;lon;timestamp;P1;durP1;ratioP1;P2;durP2;ratioP2
14776;SDS011;7480;43.124;25.686;2024-03-17T00:01:05;18.73;;;13.10;;
14776;SDS011;7480;43.124;25.686;2024-03-17T00:03:32;23.43;;;13.47;;
14776;SDS011;7480;43.124;25.686;2024-03-17T00:06:00;22.10;;;13.00;;
14776;SDS011;7480;43.124;25.686;2024-03-17T00:08:26;20.83;;;12.60;;
14776;SDS011;7480;43.124;25.686;2024-03-17T00:10:52;20.23;;;12.60;;
14776;SDS011;7480;43.124;25.686;2024-03-17T00:13:18;18.37;;;11.47;;
14776;SDS011;7480;43.124;25.686;2024-03-17T00:15:44;22.70;;;13.07;;
14776;SDS011;7480;43.124;25.686;2024-03-17T00:18:10;35.70;;;15.27;;
14776;SDS011;7480;43.124;25.686;2024-03-17T00:20:36;20.07;;;12.23;;
14776;SDS011;7480;43.124;25.686;2024-03-17T00:23:01;17.57;;;10.90;;
14776;SDS011;7480;43.124;25.686;2024-03-17T00:25:34;23.97;;;12.10;;
14776;SDS011;7480;43.124;25.686;2024-03-17T00:28:00;19.33;;;11.50;;
14776;SDS011;7480;43.124;25.686;2024-03-17T00:30:26;20.70;;;11.87;;
14776;SDS011;7480;43.124;25.686;2024-03-17T00:32:52;17.97;;;12.30;;
14776;SDS011;7480;43.124;25.686;2024-03-17T00:35:17;18.87;;;13.20;;
14776;SDS011;7480;43.124;25.686;2024-03-17T00:37:46;23.27;;;12.40;;
14776;SDS011;7480;43.124;25.686;2024-03-17T00:40:12;20.87;;;11.87;;
14776;SDS011;7480;43.124;25.686;2024-03-17T00:42:38;22.73;;;13.00;;
14776;SDS011;7480;43.124;25.686;2024-03-17T00:45:03;19.60;;;13.17;;
14776;SDS011;7480;43.124;25.686;2024-03-17T00:47:31;22.03;;;12.20;;
14776;SDS011;7480;43.124;25.686;2024-03-17T00:49:57;17.73;;;11.03;;
14776;SDS011;7480;43.124;25.686;2024-03-17T00:52:23;16.77;;;12.10;;
14776;SDS011;7480;43.124;25.686;2024-03-17T00:54:48;22.53;;;12.97;;
14776;SDS011;7480;43.124;25.686;2024-03-17T00:57:14;18.17;;;13.23;;
14776;SDS011;7480;43.124;25.686;2024-03-17T00:59:41;20.30;;;13.37;;
14776;SDS011;7480;43.124;25.686;2024-03-17T01:02:08;18.03;;;12.40;;
14776;SDS011;7480;43.124;25.686;2024-03-17T01:04:33;18.20;;;11.67;;
14776;SDS011;7480;43.124;25.686;2024-03-17T01:06:59;37.77;;;12.00;;
14776;SDS011;7480;43.124;25.686;2024-03-17T01:09:25;15.67;;;9.70;;
14776;SDS011;7480;43.124;25.686;2024-03-17T01:11:50;17.90;;;9.87;;
14776;SDS011;7480;43.124;25.686;2024-03-17T01:14:16;6.28;;;5.56;;
14776;SDS011;7480;43.124;25.686;2024-03-17T01:16:41;15.07;;;9.47;;
14776;SDS011;7480;43.124;25.686;2024-03-17T01:19:07;13.77;;;8.67;;
14776;SDS011;7480;43.124;25.686;2024-03-17T01:21:32;16.43;;;9.53;;
14776;SDS011;7480;43.124;25.686;2024-03-17T01:24:06;17.93;;;9.86;;
14776;SDS011;7480;43.124;25.686;2024-03-17T01:26:32;13.60;;;8.13;;
14776;SDS011;7480;43.124;25.686;2024-03-17T01:28:58;14.97;;;8.83;;
14776;SDS011;7480;43.124;25.686;2024-03-17T01:31:23;12.87;;;8.20;;
14776;SDS011;7480;43.124;25.686;2024-03-17T01:33:50;18.13;;;9.87;;
14776;SDS011;7480;43.124;25.686;2024-03-17T01:36:15;13.30;;;8.37;;
14776;SDS011;7480;43.124;25.686;2024-03-17T01:38:41;16.93;;;9.97;;
14776;SDS011;7480;43.124;25.686;2024-03-17T01:41:06;17.93;;;9.63;;
14776;SDS011;7480;43.124;25.686;2024-03-17T01:43:32;18.07;;;10.30;;
14776;SDS011;7480;43.124;25.686;2024-03-17T01:45:58;20.80;;;11.50;;
14776;SDS011;7480;43.124;25.686;2024-03-17T01:48:24;20.53;;;13.07;;
14776;SDS011;7480;43.124;25.686;2024-03-17T01:50:51;18.43;;;12.37;;
14776;SDS011;7480;43.124;25.686;2024-03-17T01:53:17;20.17;;;11.83;;
14776;SDS011;7480;43.124;25.686;2024-03-17T01:55:43;18.67;;;11.87;;
14776;SDS011;7480;43.124;25.686;2024-03-17T01:58:09;20.53;;;13.10;;
14776;SDS011;7480;43.124;25.686;2024-03-17T02:00:39;25.07;;;15.23;;
14776;SDS011;7480;43.124;25.686;2024-03-17T02:03:08;18.87;;;13.67;;
14776;SDS011;7480;43.124;25.686;2024-03-17T02:05:34;20.87;;;14.80;;
14776;SDS011;7480;43.124;25.686;2024-03-17T02:08:00;28.03;;;16.20;;
14776;SDS011;7480;43.124;25.686;2024-03-17T02:10:26;25.70;;;16.27;;
14776;SDS011;7480;43.124;25.686;2024-03-17T02:12:52;24.30;;;14.13;;
14776;SDS011;7480;43.124;25.686;2024-03-17T02:15:18;22.73;;;14.83;;
14776;SDS011;7480;43.124;25.686;2024-03-17T02:17:44;20.83;;;14.37;;
14776;SDS011;7480;43.124;25.686;2024-03-17T02:20:10;22.93;;;15.47;;
14776;SDS011;7480;43.124;25.686;2024-03-17T02:22:36;26.13;;;15.27;;
14776;SDS011;7480;43.124;25.686;2024-03-17T02:25:02;27.83;;;16.93;;
14776;SDS011;7480;43.124;25.686;2024-03-17T02:27:28;25.03;;;16.77;;
14776;SDS011;7480;43.124;25.686;2024-03-17T02:29:54;29.20;;;17.57;;
14776;SDS011;7480;43.124;25.686;2024-03-17T02:32:20;33.57;;;20.17;;
14776;SDS011;7480;43.124;25.686;2024-03-17T02:34:47;29.70;;;19.10;;
14776;SDS011;7480;43.124;25.686;2024-03-17T02:37:13;26.90;;;17.37;;
14776;SDS011;7480;43.124;25.686;2024-03-17T02:39:39;28.57;;;17.27;;
14776;SDS011;7480;43.124;25.686;2024-03-17T02:42:06;23.77;;;15.87;;
14776;SDS011;7480;43.124;25.686;2024-03-17T02:44:32;25.40;;;15.77;;
14776;SDS011;7480;43.124;25.686;2024-03-17T02:46:58;21.30;;;13.83;;
14776;SDS011;7480;43.124;25.686;2024-03-17T02:49:27;23.40;;;14.80;;
14776;SDS011;7480;43.124;25.686;2024-03-17T02:51:53;25.77;;;15.67;;
14776;SDS011;7480;43.124;25.686;2024-03-17T02:54:20;23.03;;;13.87;;
14776;SDS011;7480;43.124;25.686;2024-03-17T02:56:45;23.83;;;14.13;;
14776;SDS011;7480;43.124;25.686;2024-03-17T02:59:12;23.47;;;13.73;;
14776;SDS011;7480;43.124;25.686;2024-03-17T03:01:37;19.83;;;12.50;;
14776;SDS011;7480;43.124;25.686;2024-03-17T03:04:03;21.30;;;13.77;;
14776;SDS011;7480;43.124;25.686;2024-03-17T03:06:28;20.50;;;13.03;;
14776;SDS011;7480;43.124;25.686;2024-03-17T03:08:54;23.63;;;14.10;;
14776;SDS011;7480;43.124;25.686;2024-03-17T03:11:19;23.30;;;12.97;;
14776;SDS011;7480;43.124;25.686;2024-03-17T03:13:45;21.97;;;13.07;;
14776;SDS011;7480;43.124;25.686;2024-03-17T03:16:11;19.40;;;12.30;;
14776;SDS011;7480;43.124;25.686;2024-03-17T03:18:37;27.23;;;15.80;;
14776;SDS011;7480;43.124;25.686;2024-03-17T03:21:03;22.10;;;13.43;;
14776;SDS011;7480;43.124;25.686;2024-03-17T03:23:29;21.47;;;13.20;;
14776;SDS011;7480;43.124;25.686;2024-03-17T03:25:55;22.23;;;14.40;;
14776;SDS011;7480;43.124;25.686;2024-03-17T03:28:22;24.13;;;16.00;;
14776;SDS011;7480;43.124;25.686;2024-03-17T03:30:48;24.57;;;14.40;;
14776;SDS011;7480;43.124;25.686;2024-03-17T03:33:13;25.73;;;14.10;;
14776;SDS011;7480;43.124;25.686;2024-03-17T03:35:39;24.60;;;14.80;;
14776;SDS011;7480;43.124;25.686;2024-03-17T03:38:05;23.23;;;13.37;;
14776;SDS011;7480;43.124;25.686;2024-03-17T03:40:30;21.77;;;14.33;;
14776;SDS011;7480;43.124;25.686;2024-03-17T03:42:58;23.10;;;14.57;;
14776;SDS011;7480;43.124;25.686;2024-03-17T03:45:23;27.67;;;15.43;;
14776;SDS011;7480;43.124;25.686;2024-03-17T03:47:49;21.63;;;13.70;;
14776;SDS011;7480;43.124;25.686;2024-03-17T03:50:15;24.13;;;13.83;;
14776;SDS011;7480;43.124;25.686;2024-03-17T03:52:41;22.10;;;12.70;;
14776;SDS011;7480;43.124;25.686;2024-03-17T03:55:11;19.93;;;13.00;;
14776;SDS011;7480;43.124;25.686;2024-03-17T03:57:39;21.50;;;14.00;;
14776;SDS011;7480;43.124;25.686;2024-03-17T04:00:05;29.37;;;18.70;;
14776;SDS011;7480;43.124;25.686;2024-03-17T04:02:49;26.87;;;17.53;;
14776;SDS011;7480;43.124;25.686;2024-03-17T04:05:15;25.57;;;16.00;;
14776;SDS011;7480;43.124;25.686;2024-03-17T04:07:41;27.10;;;14.93;;
14776;SDS011;7480;43.124;25.686;2024-03-17T04:10:08;26.33;;;15.03;;
14776;SDS011;7480;43.124;25.686;2024-03-17T04:12:34;26.43;;;15.27;;
14776;SDS011;7480;43.124;25.686;2024-03-17T04:14:59;25.50;;;15.50;;
14776;SDS011;7480;43.124;25.686;2024-03-17T04:17:25;30.07;;;15.73;;
14776;SDS011;7480;43.124;25.686;2024-03-17T04:19:51;25.33;;;14.93;;
14776;SDS011;7480;43.124;25.686;2024-03-17T04:22:17;22.00;;;13.67;;
14776;SDS011;7480;43.124;25.686;2024-03-17T04:24:44;29.47;;;16.60;;
14776;SDS011;7480;43.124;25.686;2024-03-17T04:27:09;27.97;;;15.70;;
14776;SDS011;7480;43.124;25.686;2024-03-17T04:29:35;25.30;;;16.13;;
14776;SDS011;7480;43.124;25.686;2024-03-17T04:32:00;27.80;;;16.73;;
14776;SDS011;7480;43.124;25.686;2024-03-17T04:34:27;29.10;;;16.13;;
14776;SDS011;7480;43.124;25.686;2024-03-17T04:36:52;31.53;;;17.27;;
14776;SDS011;7480;43.124;25.686;2024-03-17T04:39:19;25.97;;;14.73;;
14776;SDS011;7480;43.124;25.686;2024-03-17T04:41:45;24.80;;;15.63;;
14776;SDS011;7480;43.124;25.686;2024-03-17T04:44:10;28.07;;;16.07;;
14776;SDS011;7480;43.124;25.686;2024-03-17T04:46:36;39.03;;;23.37;;
14776;SDS011;7480;43.124;25.686;2024-03-17T04:49:02;26.80;;;17.13;;
14776;SDS011;7480;43.124;25.686;2024-03-17T04:51:29;35.30;;;18.30;;
14776;SDS011;7480;43.124;25.686;2024-03-17T04:53:54;29.70;;;17.07;;
14776;SDS011;7480;43.124;25.686;2024-03-17T04:56:20;48.97;;;25.27;;
14776;SDS011;7480;43.124;25.686;2024-03-17T04:58:46;77.87;;;38.90;;
14776;SDS011;7480;43.124;25.686;2024-03-17T05:01:12;49.63;;;27.10;;
14776;SDS011;7480;43.124;25.686;2024-03-17T05:03:38;43.13;;;27.27;;
14776;SDS011;7480;43.124;25.686;2024-03-17T05:06:04;49.73;;;31.97;;
14776;SDS011;7480;43.124;25.686;2024-03-17T05:08:31;50.23;;;32.50;;
14776;SDS011;7480;43.124;25.686;2024-03-17T05:10:57;47.03;;;30.80;;
14776;SDS011;7480;43.124;25.686;2024-03-17T05:13:23;52.07;;;31.33;;
14776;SDS011;7480;43.124;25.686;2024-03-17T05:15:49;46.37;;;29.63;;
14776;SDS011;7480;43.124;25.686;2024-03-17T05:18:14;45.13;;;25.47;;
14776;SDS011;7480;43.124;25.686;2024-03-17T05:20:40;40.67;;;28.13;;
14776;SDS011;7480;43.124;25.686;2024-03-17T05:23:05;37.60;;;25.90;;
14776;SDS011;7480;43.124;25.686;2024-03-17T05:25:31;30.60;;;22.60;;
14776;SDS011;7480;43.124;25.686;2024-03-17T05:28:02;30.40;;;19.63;;
14776;SDS011;7480;43.124;25.686;2024-03-17T05:30:27;26.57;;;18.73;;
14776;SDS011;7480;43.124;25.686;2024-03-17T05:32:53;28.73;;;19.13;;
14776;SDS011;7480;43.124;25.686;2024-03-17T05:35:18;28.40;;;18.67;;
14776;SDS011;7480;43.124;25.686;2024-03-17T05:37:44;24.80;;;17.97;;
14776;SDS011;7480;43.124;25.686;2024-03-17T05:40:10;26.00;;;16.60;;
14776;SDS011;7480;43.124;25.686;2024-03-17T05:42:37;30.27;;;18.60;;
14776;SDS011;7480;43.124;25.686;2024-03-17T05:45:03;25.17;;;17.23;;
14776;SDS011;7480;43.124;25.686;2024-03-17T05:47:29;27.10;;;17.83;;
14776;SDS011;7480;43.124;25.686;2024-03-17T05:49:55;28.97;;;18.90;;
14776;SDS011;7480;43.124;25.686;2024-03-17T05:52:21;29.83;;;18.50;;
14776;SDS011;7480;43.124;25.686;2024-03-17T05:54:47;29.80;;;19.03;;
14776;SDS011;7480;43.124;25.686;2024-03-17T05:57:12;30.43;;;20.33;;
14776;SDS011;7480;43.124;25.686;2024-03-17T05:59:39;26.50;;;18.53;;
14776;SDS011;7480;43.124;25.686;2024-03-17T06:02:04;30.73;;;19.50;;
14776;SDS011;7480;43.124;25.686;2024-03-17T06:04:30;26.27;;;18.67;;
14776;SDS011;7480;43.124;25.686;2024-03-17T06:06:56;32.93;;;18.57;;
14776;SDS011;7480;43.124;25.686;2024-03-17T06:09:21;29.93;;;18.77;;
14776;SDS011;7480;43.124;25.686;2024-03-17T06:11:48;30.87;;;18.77;;
14776;SDS011;7480;43.124;25.686;2024-03-17T06:14:13;31.00;;;20.10;;
14776;SDS011;7480;43.124;25.686;2024-03-17T06:16:39;30.63;;;19.67;;
14776;SDS011;7480;43.124;25.686;2024-03-17T06:19:04;34.77;;;21.67;;
14776;SDS011;7480;43.124;25.686;2024-03-17T06:21:31;34.37;;;21.50;;
14776;SDS011;7480;43.124;25.686;2024-03-17T06:23:56;22.67;;;15.00;;
14776;SDS011;7480;43.124;25.686;2024-03-17T06:26:22;21.53;;;13.37;;
14776;SDS011;7480;43.124;25.686;2024-03-17T06:28:48;24.40;;;15.50;;
14776;SDS011;7480;43.124;25.686;2024-03-17T06:31:14;22.37;;;15.33;;
14776;SDS011;7480;43.124;25.686;2024-03-17T06:33:40;22.57;;;13.53;;
14776;SDS011;7480;43.124;25.686;2024-03-17T06:36:06;24.03;;;15.10;;
14776;SDS011;7480;43.124;25.686;2024-03-17T06:38:32;25.00;;;15.23;;
14776;SDS011;7480;43.124;25.686;2024-03-17T06:40:58;19.10;;;14.10;;
14776;SDS011;7480;43.124;25.686;2024-03-17T06:43:23;20.07;;;12.07;;
14776;SDS011;7480;43.124;25.686;2024-03-17T06:45:56;18.37;;;10.00;;
14776;SDS011;7480;43.124;25.686;2024-03-17T06:48:21;21.63;;;13.63;;
14776;SDS011;7480;43.124;25.686;2024-03-17T06:50:47;23.83;;;13.17;;
14776;SDS011;7480;43.124;25.686;2024-03-17T06:53:12;17.23;;;12.70;;
14776;SDS011;7480;43.124;25.686;2024-03-17T06:55:38;21.23;;;13.13;;
14776;SDS011;7480;43.124;25.686;2024-03-17T06:58:04;22.93;;;14.30;;
14776;SDS011;7480;43.124;25.686;2024-03-17T07:00:29;20.83;;;14.03;;
14776;SDS011;7480;43.124;25.686;2024-03-17T07:02:55;24.57;;;14.43;;
14776;SDS011;7480;43.124;25.686;2024-03-17T07:05:20;25.23;;;14.93;;
14776;SDS011;7480;43.124;25.686;2024-03-17T07:07:46;20.17;;;12.83;;
14776;SDS011;7480;43.124;25.686;2024-03-17T07:10:12;22.73;;;14.93;;
14776;SDS011;7480;43.124;25.686;2024-03-17T07:12:38;28.27;;;17.63;;
14776;SDS011;7480;43.124;25.686;2024-03-17T07:15:04;28.43;;;19.50;;
14776;SDS011;7480;43.124;25.686;2024-03-17T07:17:30;27.57;;;18.33;;
14776;SDS011;7480;43.124;25.686;2024-03-17T07:19:55;26.40;;;18.37;;
14776;SDS011;7480;43.124;25.686;2024-03-17T07:22:21;23.87;;;17.70;;
14776;SDS011;7480;43.124;25.686;2024-03-17T07:24:48;24.00;;;17.97;;
14776;SDS011;7480;43.124;25.686;2024-03-17T07:27:15;28.33;;;20.87;;
14776;SDS011;7480;43.124;25.686;2024-03-17T07:29:41;30.13;;;18.93;;
14776;SDS011;7480;43.124;25.686;2024-03-17T07:32:06;26.10;;;18.87;;
14776;SDS011;7480;43.124;25.686;2024-03-17T07:34:33;24.40;;;16.85;;
14776;SDS011;7480;43.124;25.686;2024-03-17T07:37:00;29.13;;;17.13;;
14776;SDS011;7480;43.124;25.686;2024-03-17T07:39:29;24.43;;;15.70;;
14776;SDS011;7480;43.124;25.686;2024-03-17T07:41:58;28.67;;;18.47;;
14776;SDS011;7480;43.124;25.686;2024-03-17T07:44:24;33.17;;;19.53;;
14776;SDS011;7480;43.124;25.686;2024-03-17T07:46:50;31.40;;;20.07;;
14776;SDS011;7480;43.124;25.686;2024-03-17T07:49:15;22.37;;;15.20;;
14776;SDS011;7480;43.124;25.686;2024-03-17T07:51:41;28.10;;;18.30;;
14776;SDS011;7480;43.124;25.686;2024-03-17T07:54:09;24.87;;;17.73;;
14776;SDS011;7480;43.124;25.686;2024-03-17T07:56:34;24.47;;;14.47;;
14776;SDS011;7480;43.124;25.686;2024-03-17T07:59:00;23.63;;;16.00;;
14776;SDS011;7480;43.124;25.686;2024-03-17T08:01:25;21.33;;;13.90;;
14776;SDS011;7480;43.124;25.686;2024-03-17T08:03:52;19.60;;;13.67;;
14776;SDS011;7480;43.124;25.686;2024-03-17T08:06:21;22.23;;;13.57;;
14776;SDS011;7480;43.124;25.686;2024-03-17T08:08:47;18.33;;;11.63;;
14776;SDS011;7480;43.124;25.686;2024-03-17T08:11:12;25.90;;;13.90;;
14776;SDS011;7480;43.124;25.686;2024-03-17T08:13:38;22.03;;;11.27;;
14776;SDS011;7480;43.124;25.686;2024-03-17T08:16:05;15.30;;;10.00;;
14776;SDS011;7480;43.124;25.686;2024-03-17T08:18:31;16.20;;;10.67;;
14776;SDS011;7480;43.124;25.686;2024-03-17T08:20:57;18.17;;;11.00;;
14776;SDS011;7480;43.124;25.686;2024-03-17T08:23:22;17.67;;;10.60;;
14776;SDS011;7480;43.124;25.686;2024-03-17T08:25:58;14.73;;;9.37;;
14776;SDS011;7480;43.124;25.686;2024-03-17T08:28:24;22.00;;;11.00;;
14776;SDS011;7480;43.124;25.686;2024-03-17T08:30:51;15.30;;;10.30;;
14776;SDS011;7480;43.124;25.686;2024-03-17T08:33:16;13.70;;;9.13;;
14776;SDS011;7480;43.124;25.686;2024-03-17T08:35:42;19.67;;;10.90;;
14776;SDS011;7480;43.124;25.686;2024-03-17T08:38:07;19.13;;;11.27;;
14776;SDS011;7480;43.124;25.686;2024-03-17T08:40:33;19.20;;;10.93;;
14776;SDS011;7480;43.124;25.686;2024-03-17T08:43:01;17.10;;;9.70;;
14776;SDS011;7480;43.124;25.686;2024-03-17T08:45:27;15.67;;;9.97;;
14776;SDS011;7480;43.124;25.686;2024-03-17T08:47:53;16.40;;;9.77;;
14776;SDS011;7480;43.124;25.686;2024-03-17T08:50:19;19.43;;;10.80;;
14776;SDS011;7480;43.124;25.686;2024-03-17T08:52:44;19.13;;;10.63;;
14776;SDS011;7480;43.124;25.686;2024-03-17T08:55:20;15.20;;;8.96;;
14776;SDS011;7480;43.124;25.686;2024-03-17T08:57:45;19.77;;;10.17;;
14776;SDS011;7480;43.124;25.686;2024-03-17T09:00:11;13.10;;;7.40;;
14776;SDS011;7480;43.124;25.686;2024-03-17T09:02:37;12.70;;;8.10;;
14776;SDS011;7480;43.124;25.686;2024-03-17T09:05:02;15.97;;;8.17;;
14776;SDS011;7480;43.124;25.686;2024-03-17T09:07:29;13.93;;;7.87;;
14776;SDS011;7480;43.124;25.686;2024-03-17T09:09:55;14.07;;;8.23;;
14776;SDS011;7480;43.124;25.686;2024-03-17T09:12:20;12.67;;;8.50;;
14776;SDS011;7480;43.124;25.686;2024-03-17T09:14:49;15.97;;;8.20;;
14776;SDS011;7480;43.124;25.686;2024-03-17T09:17:14;16.00;;;9.20;;
14776;SDS011;7480;43.124;25.686;2024-03-17T09:19:40;13.13;;;7.20;;
14776;SDS011;7480;43.124;25.686;2024-03-17T09:22:06;14.67;;;8.60;;
14776;SDS011;7480;43.124;25.686;2024-03-17T09:24:32;13.60;;;8.57;;
14776;SDS011;7480;43.124;25.686;2024-03-17T09:26:57;20.83;;;10.00;;
14776;SDS011;7480;43.124;25.686;2024-03-17T09:29:23;13.37;;;7.77;;
14776;SDS011;7480;43.124;25.686;2024-03-17T09:31:49;10.37;;;6.30;;
14776;SDS011;7480;43.124;25.686;2024-03-17T09:34:15;10.80;;;7.00;;
14776;SDS011;7480;43.124;25.686;2024-03-17T09:36:40;12.50;;;7.57;;
14776;SDS011;7480;43.124;25.686;2024-03-17T09:39:06;12.43;;;6.90;;
14776;SDS011;7480;43.124;25.686;2024-03-17T09:41:31;15.27;;;8.40;;
14776;SDS011;7480;43.124;25.686;2024-03-17T09:43:57;15.97;;;7.60;;
14776;SDS011;7480;43.124;25.686;2024-03-17T09:46:24;10.83;;;6.97;;
14776;SDS011;7480;43.124;25.686;2024-03-17T09:48:51;11.03;;;5.63;;
14776;SDS011;7480;43.124;25.686;2024-03-17T09:51:24;11.50;;;6.70;;
14776;SDS011;7480;43.124;25.686;2024-03-17T09:53:50;12.57;;;6.57;;
14776;SDS011;7480;43.124;25.686;2024-03-17T09:56:16;9.57;;;6.13;;
14776;SDS011;7480;43.124;25.686;2024-03-17T09:58:50;12.10;;;7.27;;
14776;SDS011;7480;43.124;25.686;2024-03-17T10:01:16;10.07;;;6.40;;
14776;SDS011;7480;43.124;25.686;2024-03-17T10:06:14;7.37;;;4.50;;
14776;SDS011;7480;43.124;25.686;2024-03-17T10:08:46;14.93;;;7.63;;
14776;SDS011;7480;43.124;25.686;2024-03-17T10:11:13;9.23;;;5.33;;
14776;SDS011;7480;43.124;25.686;2024-03-17T10:13:40;9.40;;;5.30;;
14776;SDS011;7480;43.124;25.686;2024-03-17T10:16:13;8.00;;;5.00;;
14776;SDS011;7480;43.124;25.686;2024-03-17T10:18:43;9.03;;;5.03;;
14776;SDS011;7480;43.124;25.686;2024-03-17T10:21:19;7.20;;;4.47;;
14776;SDS011;7480;43.124;25.686;2024-03-17T10:23:50;7.73;;;4.27;;
14776;SDS011;7480;43.124;25.686;2024-03-17T10:26:29;6.00;;;3.67;;
14776;SDS011;7480;43.124;25.686;2024-03-17T10:28:55;8.93;;;3.93;;
14776;SDS011;7480;43.124;25.686;2024-03-17T10:31:20;9.17;;;4.27;;
14776;SDS011;7480;43.124;25.686;2024-03-17T10:33:47;12.50;;;5.70;;
14776;SDS011;7480;43.124;25.686;2024-03-17T10:36:25;8.83;;;4.57;;
14776;SDS011;7480;43.124;25.686;2024-03-17T10:38:51;7.70;;;3.70;;
14776;SDS011;7480;43.124;25.686;2024-03-17T10:41:18;9.17;;;4.00;;
14776;SDS011;7480;43.124;25.686;2024-03-17T10:43:45;7.80;;;4.43;;
14776;SDS011;7480;43.124;25.686;2024-03-17T10:46:11;8.93;;;5.23;;
14776;SDS011;7480;43.124;25.686;2024-03-17T10:48:40;3.97;;;2.57;;
14776;SDS011;7480;43.124;25.686;2024-03-17T10:51:06;8.47;;;4.13;;
14776;SDS011;7480;43.124;25.686;2024-03-17T10:53:36;6.77;;;3.63;;
14776;SDS011;7480;43.124;25.686;2024-03-17T10:56:05;6.20;;;3.93;;
14776;SDS011;7480;43.124;25.686;2024-03-17T10:58:35;4.40;;;3.00;;
14776;SDS011;7480;43.124;25.686;2024-03-17T11:01:02;6.63;;;3.63;;
14776;SDS011;7480;43.124;25.686;2024-03-17T11:03:33;5.10;;;3.37;;
14776;SDS011;7480;43.124;25.686;2024-03-17T11:05:59;7.20;;;3.40;;
14776;SDS011;7480;43.124;25.686;2024-03-17T11:08:26;8.77;;;4.17;;
14776;SDS011;7480;43.124;25.686;2024-03-17T11:10:52;10.23;;;4.33;;
14776;SDS011;7480;43.124;25.686;2024-03-17T11:13:26;10.63;;;4.33;;
14776;SDS011;7480;43.124;25.686;2024-03-17T11:15:53;5.30;;;3.30;;
14776;SDS011;7480;43.124;25.686;2024-03-17T11:20:59;4.40;;;2.40;;
14776;SDS011;7480;43.124;25.686;2024-03-17T11:23:26;4.57;;;2.80;;
14776;SDS011;7480;43.124;25.686;2024-03-17T11:25:53;10.00;;;5.07;;
14776;SDS011;7480;43.124;25.686;2024-03-17T11:28:44;7.83;;;4.93;;
14776;SDS011;7480;43.124;25.686;2024-03-17T11:31:04;10.60;;;5.30;;
14776;SDS011;7480;43.124;25.686;2024-03-17T11:38:53;6.80;;;4.83;;
14776;SDS011;7480;43.124;25.686;2024-03-17T11:49:23;8.90;;;4.43;;
14776;SDS011;7480;43.124;25.686;2024-03-17T11:51:52;8.87;;;5.03;;
14776;SDS011;7480;43.124;25.686;2024-03-17T11:54:23;8.43;;;4.67;;
14776;SDS011;7480;43.124;25.686;2024-03-17T11:57:01;7.77;;;4.23;;
14776;SDS011;7480;43.124;25.686;2024-03-17T11:59:27;8.00;;;5.00;;
14776;SDS011;7480;43.124;25.686;2024-03-17T12:01:54;7.80;;;3.80;;
14776;SDS011;7480;43.124;25.686;2024-03-17T12:04:20;8.20;;;4.10;;
14776;SDS011;7480;43.124;25.686;2024-03-17T12:06:50;12.37;;;4.77;;
14776;SDS011;7480;43.124;25.686;2024-03-17T12:09:19;6.03;;;3.60;;
14776;SDS011;7480;43.124;25.686;2024-03-17T12:11:58;6.43;;;3.23;;
14776;SDS011;7480;43.124;25.686;2024-03-17T12:14:24;8.13;;;3.50;;
14776;SDS011;7480;43.124;25.686;2024-03-17T12:16:57;16.83;;;6.03;;
14776;SDS011;7480;43.124;25.686;2024-03-17T12:19:23;11.70;;;5.03;;
14776;SDS011;7480;43.124;25.686;2024-03-17T12:21:50;7.50;;;3.77;;
14776;SDS011;7480;43.124;25.686;2024-03-17T12:24:19;6.47;;;3.37;;
14776;SDS011;7480;43.124;25.686;2024-03-17T12:26:45;11.40;;;4.90;;
14776;SDS011;7480;43.124;25.686;2024-03-17T12:29:22;9.90;;;4.43;;
14776;SDS011;7480;43.124;25.686;2024-03-17T12:31:49;7.80;;;4.50;;
14776;SDS011;7480;43.124;25.686;2024-03-17T12:34:14;6.00;;;3.37;;
14776;SDS011;7480;43.124;25.686;2024-03-17T12:36:40;10.10;;;4.93;;
14776;SDS011;7480;43.124;25.686;2024-03-17T12:39:22;11.03;;;5.20;;
14776;SDS011;7480;43.124;25.686;2024-03-17T12:44:32;6.73;;;3.70;;
14776;SDS011;7480;43.124;25.686;2024-03-17T12:47:00;12.20;;;4.80;;
14776;SDS011;7480;43.124;25.686;2024-03-17T12:49:26;5.90;;;3.40;;
14776;SDS011;7480;43.124;25.686;2024-03-17T12:51:52;8.60;;;3.77;;
14776;SDS011;7480;43.124;25.686;2024-03-17T12:54:24;6.18;;;3.80;;
14776;SDS011;7480;43.124;25.686;2024-03-17T12:57:09;8.67;;;4.70;;
14776;SDS011;7480;43.124;25.686;2024-03-17T12:59:55;5.27;;;3.13;;
14776;SDS011;7480;43.124;25.686;2024-03-17T13:02:43;6.83;;;3.60;;
14776;SDS011;7480;43.124;25.686;2024-03-17T13:05:18;4.37;;;3.47;;
14776;SDS011;7480;43.124;25.686;2024-03-17T13:07:45;5.73;;;3.50;;
14776;SDS011;7480;43.124;25.686;2024-03-17T13:10:14;7.00;;;3.60;;
14776;SDS011;7480;43.124;25.686;2024-03-17T13:12:40;10.37;;;4.37;;
14776;SDS011;7480;43.124;25.686;2024-03-17T13:15:08;6.90;;;3.83;;
14776;SDS011;7480;43.124;25.686;2024-03-17T13:17:34;5.70;;;3.37;;
14776;SDS011;7480;43.124;25.686;2024-03-17T13:20:00;7.60;;;3.43;;
14776;SDS011;7480;43.124;25.686;2024-03-17T13:22:26;6.13;;;3.47;;
14776;SDS011;7480;43.124;25.686;2024-03-17T13:24:52;7.37;;;3.63;;
14776;SDS011;7480;43.124;25.686;2024-03-17T13:27:18;9.70;;;3.80;;
14776;SDS011;7480;43.124;25.686;2024-03-17T13:29:47;7.33;;;3.43;;
14776;SDS011;7480;43.124;25.686;2024-03-17T13:32:13;5.00;;;3.20;;
14776;SDS011;7480;43.124;25.686;2024-03-17T13:34:39;8.50;;;3.80;;
14776;SDS011;7480;43.124;25.686;2024-03-17T13:37:05;5.20;;;2.73;;
14776;SDS011;7480;43.124;25.686;2024-03-17T13:39:30;6.03;;;3.10;;
14776;SDS011;7480;43.124;25.686;2024-03-17T13:41:59;6.27;;;3.27;;
14776;SDS011;7480;43.124;25.686;2024-03-17T13:44:31;4.53;;;3.20;;
14776;SDS011;7480;43.124;25.686;2024-03-17T13:46:58;7.50;;;3.37;;
14776;SDS011;7480;43.124;25.686;2024-03-17T13:49:24;5.68;;;3.25;;
14776;SDS011;7480;43.124;25.686;2024-03-17T13:51:50;9.23;;;4.07;;
14776;SDS011;7480;43.124;25.686;2024-03-17T13:54:15;3.87;;;2.73;;
14776;SDS011;7480;43.124;25.686;2024-03-17T13:56:41;7.30;;;3.57;;
14776;SDS011;7480;43.124;25.686;2024-03-17T13:59:07;9.20;;;4.10;;
14776;SDS011;7480;43.124;25.686;2024-03-17T14:01:33;8.80;;;3.87;;
14776;SDS011;7480;43.124;25.686;2024-03-17T14:03:58;7.27;;;3.67;;
14776;SDS011;7480;43.124;25.686;2024-03-17T14:06:24;7.60;;;3.30;;
14776;SDS011;7480;43.124;25.686;2024-03-17T14:08:49;7.40;;;3.70;;
14776;SDS011;7480;43.124;25.686;2024-03-17T14:11:15;3.90;;;2.53;;
14776;SDS011;7480;43.124;25.686;2024-03-17T14:13:40;4.73;;;2.70;;
14776;SDS011;7480;43.124;25.686;2024-03-17T14:16:06;5.67;;;2.53;;
14776;SDS011;7480;43.124;25.686;2024-03-17T14:18:31;4.90;;;2.47;;
14776;SDS011;7480;43.124;25.686;2024-03-17T14:21:00;6.40;;;2.80;;
14776;SDS011;7480;43.124;25.686;2024-03-17T14:23:26;6.20;;;3.03;;
14776;SDS011;7480;43.124;25.686;2024-03-17T14:25:54;6.33;;;2.70;;
14776;SDS011;7480;43.124;25.686;2024-03-17T14:28:19;5.70;;;2.70;;
14776;SDS011;7480;43.124;25.686;2024-03-17T14:30:45;9.97;;;5.67;;
14776;SDS011;7480;43.124;25.686;2024-03-17T14:33:10;12.80;;;5.27;;
14776;SDS011;7480;43.124;25.686;2024-03-17T14:35:36;8.97;;;4.47;;
14776;SDS011;7480;43.124;25.686;2024-03-17T14:38:03;5.87;;;3.83;;
14776;SDS011;7480;43.124;25.686;2024-03-17T14:40:29;5.90;;;2.90;;
14776;SDS011;7480;43.124;25.686;2024-03-17T14:42:55;10.37;;;4.30;;
14776;SDS011;7480;43.124;25.686;2024-03-17T14:45:21;12.13;;;5.03;;
14776;SDS011;7480;43.124;25.686;2024-03-17T14:47:49;7.73;;;4.50;;
14776;SDS011;7480;43.124;25.686;2024-03-17T14:50:15;5.07;;;3.63;;